sensor_id;sensor_type;location;lat;lon;timestamp;pressure;altitude;pressure_sealevel;temperature;humidity
75221;BME280;63802;53.232;6.570;2023-02-08T00:00:43;104115.38;;;-2.90;92.64
75221;BME280;63802;53.232;6.570;2023-02-08T00:03:08;104112.44;;;-2.95;93.33
75221;BME280;63802;53.232;6.570;2023-02-08T00:05:34;104086.47;;;-3.07;92.76
75221;BME280;63802;53.232;6.570;2023-02-08T00:07:59;104096.81;;;-2.98;93.32
75221;BME280;63802;53.232;6.570;2023-02-08T00:10:25;104097.19;;;-3.01;93.01
75221;BME280;63802;53.232;6.570;2023-02-08T00:12:50;104095.78;;;-2.97;93.28
75221;BME280;63802;53.232;6.570;2023-02-08T00:15:19;104091.47;;;-2.98;93.42
75221;BME280;63802;53.232;6.570;2023-02-08T00:17:45;104097.03;;;-2.93;93.35
75221;BME280;63802;53.232;6.570;2023-02-08T00:20:11;104093.03;;;-2.82;93.25
75221;BME280;63802;53.232;6.570;2023-02-08T00:22:37;104098.63;;;-2.77;93.35
75221;BME280;63802;53.232;6.570;2023-02-08T00:25:07;104094.31;;;-2.78;93.66
75221;BME280;63802;53.232;6.570;2023-02-08T00:27:32;104087.38;;;-2.73;93.28
75221;BME280;63802;53.232;6.570;2023-02-08T00:29:58;104082.28;;;-2.67;93.52
75221;BME280;63802;53.232;6.570;2023-02-08T00:32:23;104080.22;;;-2.65;93.84
75221;BME280;63802;53.232;6.570;2023-02-08T00:34:48;104070.25;;;-2.78;93.79
75221;BME280;63802;53.232;6.570;2023-02-08T00:37:14;104072.75;;;-2.77;93.71
75221;BME280;63802;53.232;6.570;2023-02-08T00:39:39;104085.94;;;-2.68;93.63
75221;BME280;63802;53.232;6.570;2023-02-08T00:42:05;104083.47;;;-2.70;93.75
75221;BME280;63802;53.232;6.570;2023-02-08T00:44:30;104087.38;;;-2.73;93.78
75221;BME280;63802;53.232;6.570;2023-02-08T00:46:55;104084.06;;;-2.75;93.94
75221;BME280;63802;53.232;6.570;2023-02-08T00:49:21;104087.75;;;-2.76;93.92
75221;BME280;63802;53.232;6.570;2023-02-08T00:51:46;104093.09;;;-2.76;93.81
75221;BME280;63802;53.232;6.570;2023-02-08T00:54:13;104095.34;;;-2.79;93.85
75221;BME280;63802;53.232;6.570;2023-02-08T00:56:39;104091.38;;;-2.83;93.96
75221;BME280;63802;53.232;6.570;2023-02-08T00:59:04;104093.63;;;-2.87;94.13
75221;BME280;63802;53.232;6.570;2023-02-08T01:01:30;104092.38;;;-2.91;93.71
75221;BME280;63802;53.232;6.570;2023-02-08T01:03:55;104095.22;;;-2.92;93.98
75221;BME280;63802;53.232;6.570;2023-02-08T01:06:21;104103.31;;;-2.86;94.32
75221;BME280;63802;53.232;6.570;2023-02-08T01:08:47;104096.50;;;-2.88;94.37
75221;BME280;63802;53.232;6.570;2023-02-08T01:11:16;104101.88;;;-2.82;94.22
75221;BME280;63802;53.232;6.570;2023-02-08T01:13:43;104098.97;;;-2.87;94.18
75221;BME280;63802;53.232;6.570;2023-02-08T01:16:16;104096.03;;;-2.92;94.13
75221;BME280;63802;53.232;6.570;2023-02-08T01:18:44;104092.28;;;-2.97;94.36
75221;BME280;63802;53.232;6.570;2023-02-08T01:21:13;104082.81;;;-3.00;94.25
75221;BME280;63802;53.232;6.570;2023-02-08T01:23:39;104088.16;;;-3.00;94.19
75221;BME280;63802;53.232;6.570;2023-02-08T01:26:05;104087.78;;;-2.97;94.10
75221;BME280;63802;53.232;6.570;2023-02-08T01:28:31;104084.84;;;-3.02;94.29
75221;BME280;63802;53.232;6.570;2023-02-08T01:30:56;104087.09;;;-3.05;93.90
75221;BME280;63802;53.232;6.570;2023-02-08T01:33:22;104088.34;;;-3.01;93.99
75221;BME280;63802;53.232;6.570;2023-02-08T01:35:51;104078.03;;;-3.04;93.96
75221;BME280;63802;53.232;6.570;2023-02-08T01:38:18;104091.84;;;-3.01;93.83
75221;BME280;63802;53.232;6.570;2023-02-08T01:40:43;104091.41;;;-3.04;94.67
75221;BME280;63802;53.232;6.570;2023-02-08T01:43:23;104092.22;;;-3.04;94.21
75221;BME280;63802;53.232;6.570;2023-02-08T01:45:49;104089.66;;;-3.12;94.35
75221;BME280;63802;53.232;6.570;2023-02-08T01:48:19;104092.59;;;-3.07;94.38
75221;BME280;63802;53.232;6.570;2023-02-08T01:51:10;104093.63;;;-3.08;94.43
75221;BME280;63802;53.232;6.570;2023-02-08T01:53:38;104099.34;;;-3.11;93.90
75221;BME280;63802;53.232;6.570;2023-02-08T01:56:07;104099.09;;;-3.16;94.40
75221;BME280;63802;53.232;6.570;2023-02-08T01:58:38;104090.44;;;-3.18;94.60
75221;BME280;63802;53.232;6.570;2023-02-08T02:01:06;104092.13;;;-3.17;94.32
75221;BME280;63802;53.232;6.570;2023-02-08T02:03:32;104086.69;;;-3.23;94.70
75221;BME280;63802;53.232;6.570;2023-02-08T02:06:07;104091.41;;;-3.04;94.54
75221;BME280;63802;53.232;6.570;2023-02-08T02:08:34;104089.34;;;-3.02;94.64
75221;BME280;63802;53.232;6.570;2023-02-08T02:10:59;104093.91;;;-3.03;94.40
75221;BME280;63802;53.232;6.570;2023-02-08T02:13:26;104092.47;;;-2.99;94.81
75221;BME280;63802;53.232;6.570;2023-02-08T02:15:52;104083.25;;;-2.96;94.31
75221;BME280;63802;53.232;6.570;2023-02-08T02:18:24;104086.75;;;-2.96;94.57
75221;BME280;63802;53.232;6.570;2023-02-08T02:36:49;104073.91;;;-2.86;94.58
75221;BME280;63802;53.232;6.570;2023-02-08T02:42:20;104066.06;;;-2.87;94.88
75221;BME280;63802;53.232;6.570;2023-02-08T02:45:14;104061.88;;;-2.96;94.47
75221;BME280;63802;53.232;6.570;2023-02-08T02:48:01;104060.94;;;-2.89;94.41
75221;BME280;63802;53.232;6.570;2023-02-08T02:50:34;104065.25;;;-2.88;94.67
75221;BME280;63802;53.232;6.570;2023-02-08T02:53:28;104064.03;;;-2.85;94.46
75221;BME280;63802;53.232;6.570;2023-02-08T02:55:59;104062.63;;;-2.81;94.84
75221;BME280;63802;53.232;6.570;2023-02-08T02:58:30;104060.00;;;-2.75;94.57
75221;BME280;63802;53.232;6.570;2023-02-08T03:00:58;104059.56;;;-2.78;94.88
75221;BME280;63802;53.232;6.570;2023-02-08T03:03:26;104053.16;;;-2.84;94.43
75221;BME280;63802;53.232;6.570;2023-02-08T03:05:57;104045.41;;;-2.79;94.65
75221;BME280;63802;53.232;6.570;2023-02-08T03:08:39;104052.63;;;-2.73;94.91
75221;BME280;63802;53.232;6.570;2023-02-08T03:11:38;104052.25;;;-2.69;94.85
75221;BME280;63802;53.232;6.570;2023-02-08T03:14:15;104054.00;;;-2.55;94.85
75221;BME280;63802;53.232;6.570;2023-02-08T03:19:38;104055.16;;;-2.64;94.48
75221;BME280;63802;53.232;6.570;2023-02-08T03:25:20;104057.47;;;-2.83;94.33
75221;BME280;63802;53.232;6.570;2023-02-08T03:28:18;104046.75;;;-2.89;94.50
75221;BME280;63802;53.232;6.570;2023-02-08T03:30:54;104045.03;;;-2.97;94.50
75221;BME280;63802;53.232;6.570;2023-02-08T03:33:29;104046.81;;;-3.04;94.56
75221;BME280;63802;53.232;6.570;2023-02-08T03:36:11;104052.75;;;-3.08;94.57
75221;BME280;63802;53.232;6.570;2023-02-08T03:38:42;104058.03;;;-3.15;94.42
75221;BME280;63802;53.232;6.570;2023-02-08T03:41:13;104059.41;;;-3.19;94.62
75221;BME280;63802;53.232;6.570;2023-02-08T03:43:48;104054.47;;;-3.22;94.35
75221;BME280;63802;53.232;6.570;2023-02-08T03:46:20;104054.66;;;-3.23;94.36
75221;BME280;63802;53.232;6.570;2023-02-08T03:48:55;104053.38;;;-3.27;94.22
75221;BME280;63802;53.232;6.570;2023-02-08T03:51:23;104052.91;;;-3.31;94.24
75221;BME280;63802;53.232;6.570;2023-02-08T03:53:52;104057.00;;;-3.35;93.89
75221;BME280;63802;53.232;6.570;2023-02-08T03:56:34;104059.41;;;-3.40;94.01
75221;BME280;63802;53.232;6.570;2023-02-08T03:59:06;104052.59;;;-3.43;94.58
75221;BME280;63802;53.232;6.570;2023-02-08T04:01:48;104057.78;;;-3.41;94.66
75221;BME280;63802;53.232;6.570;2023-02-08T04:04:16;104047.59;;;-3.31;94.27
75221;BME280;63802;53.232;6.570;2023-02-08T04:06:43;104054.31;;;-3.14;94.69
75221;BME280;63802;53.232;6.570;2023-02-08T04:09:09;104045.19;;;-3.05;94.47
75221;BME280;63802;53.232;6.570;2023-02-08T04:11:34;104034.53;;;-2.98;94.86
75221;BME280;63802;53.232;6.570;2023-02-08T04:13:59;104038.22;;;-2.99;94.52
75221;BME280;63802;53.232;6.570;2023-02-08T04:16:25;104034.53;;;-2.98;94.61
75221;BME280;63802;53.232;6.570;2023-02-08T04:18:50;104036.34;;;-3.05;94.35
75221;BME280;63802;53.232;6.570;2023-02-08T04:21:15;104039.69;;;-2.97;94.47
75221;BME280;63802;53.232;6.570;2023-02-08T04:23:41;104030.47;;;-2.94;94.81
75221;BME280;63802;53.232;6.570;2023-02-08T04:26:06;104033.25;;;-2.81;94.62
75221;BME280;63802;53.232;6.570;2023-02-08T04:28:33;104042.53;;;-2.77;94.76
75221;BME280;63802;53.232;6.570;2023-02-08T04:30:58;104036.88;;;-2.89;94.48
75221;BME280;63802;53.232;6.570;2023-02-08T04:33:27;104042.72;;;-3.00;94.61
75221;BME280;63802;53.232;6.570;2023-02-08T04:35:53;104047.03;;;-3.05;94.58
75221;BME280;63802;53.232;6.570;2023-02-08T04:38:18;104044.94;;;-3.10;94.67
75221;BME280;63802;53.232;6.570;2023-02-08T04:40:43;104045.31;;;-3.13;94.76
75221;BME280;63802;53.232;6.570;2023-02-08T04:43:09;104036.56;;;-3.21;94.21
75221;BME280;63802;53.232;6.570;2023-02-08T04:45:34;104048.09;;;-3.21;94.30
75221;BME280;63802;53.232;6.570;2023-02-08T04:48:00;104047.22;;;-3.28;94.53
75221;BME280;63802;53.232;6.570;2023-02-08T04:50:26;104046.78;;;-3.31;94.22
75221;BME280;63802;53.232;6.570;2023-02-08T04:52:52;104050.44;;;-3.32;94.08
75221;BME280;63802;53.232;6.570;2023-02-08T04:55:17;104054.97;;;-3.33;94.41
75221;BME280;63802;53.232;6.570;2023-02-08T04:57:43;104045.06;;;-3.39;94.54
75221;BME280;63802;53.232;6.570;2023-02-08T05:00:09;104044.16;;;-3.46;94.38
75221;BME280;63802;53.232;6.570;2023-02-08T05:02:34;104054.84;;;-3.46;94.24
75221;BME280;63802;53.232;6.570;2023-02-08T05:04:59;104048.22;;;-3.50;94.12
75221;BME280;63802;53.232;6.570;2023-02-08T05:07:25;104037.47;;;-3.57;94.05
75221;BME280;63802;53.232;6.570;2023-02-08T05:09:50;104047.31;;;-3.57;94.05
75221;BME280;63802;53.232;6.570;2023-02-08T05:12:15;104036.94;;;-3.67;94.47
75221;BME280;63802;53.232;6.570;2023-02-08T05:14:41;104034.09;;;-3.65;93.87
75221;BME280;63802;53.232;6.570;2023-02-08T05:17:06;104036.13;;;-3.67;94.44
75221;BME280;63802;53.232;6.570;2023-02-08T05:19:31;104045.41;;;-3.63;94.31
75221;BME280;63802;53.232;6.570;2023-02-08T05:21:57;104034.09;;;-3.65;94.50
75221;BME280;63802;53.232;6.570;2023-02-08T05:24:22;104035.31;;;-3.68;94.68
75221;BME280;63802;53.232;6.570;2023-02-08T05:26:47;104042.47;;;-3.68;94.57
75221;BME280;63802;53.232;6.570;2023-02-08T05:29:13;104036.69;;;-3.72;94.21
75221;BME280;63802;53.232;6.570;2023-02-08T05:31:39;104034.84;;;-3.71;94.32
75221;BME280;63802;53.232;6.570;2023-02-08T05:34:04;104026.66;;;-3.70;94.26
75221;BME280;63802;53.232;6.570;2023-02-08T05:36:30;104034.94;;;-3.65;94.27
75221;BME280;63802;53.232;6.570;2023-02-08T05:38:55;104021.41;;;-3.63;94.87
75221;BME280;63802;53.232;6.570;2023-02-08T05:41:20;104015.28;;;-3.57;94.36
75221;BME280;63802;53.232;6.570;2023-02-08T05:43:46;104021.50;;;-3.50;94.81
75221;BME280;63802;53.232;6.570;2023-02-08T05:46:11;104013.50;;;-3.50;94.68
75221;BME280;63802;53.232;6.570;2023-02-08T05:48:37;104026.94;;;-3.44;94.56
75221;BME280;63802;53.232;6.570;2023-02-08T05:51:02;104038.06;;;-3.40;94.86
75221;BME280;63802;53.232;6.570;2023-02-08T05:53:29;104030.25;;;-3.42;94.62
75221;BME280;63802;53.232;6.570;2023-02-08T05:55:56;104031.81;;;-3.47;94.51
75221;BME280;63802;53.232;6.570;2023-02-08T05:58:22;104031.81;;;-3.47;94.58
75221;BME280;63802;53.232;6.570;2023-02-08T06:00:47;104028.31;;;-3.48;94.56
75221;BME280;63802;53.232;6.570;2023-02-08T06:03:13;104019.09;;;-3.45;94.72
75221;BME280;63802;53.232;6.570;2023-02-08T06:05:39;104022.50;;;-3.36;95.10
75221;BME280;63802;53.232;6.570;2023-02-08T06:08:05;104021.66;;;-3.37;94.97
75221;BME280;63802;53.232;6.570;2023-02-08T06:10:31;104031.19;;;-3.28;94.57
75221;BME280;63802;53.232;6.570;2023-02-08T06:12:56;104030.56;;;-3.30;94.98
75221;BME280;63802;53.232;6.570;2023-02-08T06:15:22;104034.00;;;-3.36;94.64
75221;BME280;63802;53.232;6.570;2023-02-08T06:17:47;104027.44;;;-3.33;94.55
75221;BME280;63802;53.232;6.570;2023-02-08T06:20:13;104027.63;;;-3.35;95.01
75221;BME280;63802;53.232;6.570;2023-02-08T06:22:38;104031.06;;;-3.41;94.66
75221;BME280;63802;53.232;6.570;2023-02-08T06:25:04;104031.06;;;-3.41;94.62
75221;BME280;63802;53.232;6.570;2023-02-08T06:27:29;104025.47;;;-3.46;94.99
75221;BME280;63802;53.232;6.570;2023-02-08T06:29:55;104021.50;;;-3.50;95.01
75221;BME280;63802;53.232;6.570;2023-02-08T06:32:20;104014.66;;;-3.59;94.62
75221;BME280;63802;53.232;6.570;2023-02-08T06:34:45;104024.75;;;-3.55;94.50
75221;BME280;63802;53.232;6.570;2023-02-08T06:37:12;104021.28;;;-3.55;94.38
75221;BME280;63802;53.232;6.570;2023-02-08T06:39:37;104025.91;;;-3.64;94.82
75221;BME280;63802;53.232;6.570;2023-02-08T06:42:03;104019.72;;;-3.64;94.97
75221;BME280;63802;53.232;6.570;2023-02-08T06:44:28;104019.72;;;-3.64;94.61
75221;BME280;63802;53.232;6.570;2023-02-08T06:46:53;104032.34;;;-3.58;94.57
75221;BME280;63802;53.232;6.570;2023-02-08T06:49:19;104041.16;;;-3.58;94.95
75221;BME280;63802;53.232;6.570;2023-02-08T06:51:44;104030.03;;;-3.61;95.24
75221;BME280;63802;53.232;6.570;2023-02-08T06:54:10;104027.63;;;-3.56;94.86
75221;BME280;63802;53.232;6.570;2023-02-08T06:56:35;104027.81;;;-3.58;94.72
75221;BME280;63802;53.232;6.570;2023-02-08T06:59:01;104031.69;;;-3.60;95.02
75221;BME280;63802;53.232;6.570;2023-02-08T07:01:26;104032.75;;;-3.55;94.66
75221;BME280;63802;53.232;6.570;2023-02-08T07:03:51;104038.38;;;-3.50;94.90
75221;BME280;63802;53.232;6.570;2023-02-08T07:06:18;104036.91;;;-3.52;95.07
75221;BME280;63802;53.232;6.570;2023-02-08T07:08:45;104026.63;;;-3.55;95.21
75221;BME280;63802;53.232;6.570;2023-02-08T07:11:14;104022.28;;;-3.56;95.07
75221;BME280;63802;53.232;6.570;2023-02-08T07:13:40;104027.25;;;-3.53;94.92
75221;BME280;63802;53.232;6.570;2023-02-08T07:16:08;104033.09;;;-3.43;94.86
75221;BME280;63802;53.232;6.570;2023-02-08T07:18:34;104027.00;;;-3.37;95.08
75221;BME280;63802;53.232;6.570;2023-02-08T07:21:00;104029.66;;;-3.37;95.10
75221;BME280;63802;53.232;6.570;2023-02-08T07:23:26;104027.06;;;-3.30;95.19
75221;BME280;63802;53.232;6.570;2023-02-08T07:26:01;104022.81;;;-3.25;94.98
75221;BME280;63802;53.232;6.570;2023-02-08T07:28:27;104008.66;;;-3.19;95.35
75221;BME280;63802;53.232;6.570;2023-02-08T07:30:53;104004.00;;;-3.17;95.30
75221;BME280;63802;53.232;6.570;2023-02-08T07:33:19;104003.44;;;-3.06;94.88
75221;BME280;63802;53.232;6.570;2023-02-08T07:35:45;104006.38;;;-3.01;95.06
75221;BME280;63802;53.232;6.570;2023-02-08T07:38:10;104000.66;;;-2.98;95.31
75221;BME280;63802;53.232;6.570;2023-02-08T07:40:35;103996.78;;;-2.95;95.01
75221;BME280;63802;53.232;6.570;2023-02-08T07:43:01;103995.78;;;-2.88;94.91
75221;BME280;63802;53.232;6.570;2023-02-08T07:45:26;103998.94;;;-2.78;94.91
75221;BME280;63802;53.232;6.570;2023-02-08T07:47:52;103982.72;;;-2.76;94.96
75221;BME280;63802;53.232;6.570;2023-02-08T07:50:17;103984.56;;;-2.77;95.14
75221;BME280;63802;53.232;6.570;2023-02-08T07:52:42;103981.50;;;-2.74;94.74
75221;BME280;63802;53.232;6.570;2023-02-08T07:55:10;103980.66;;;-2.74;95.08
75221;BME280;63802;53.232;6.570;2023-02-08T07:57:44;103983.53;;;-2.76;95.00
75221;BME280;63802;53.232;6.570;2023-02-08T08:00:10;103979.47;;;-2.72;95.03
75221;BME280;63802;53.232;6.570;2023-02-08T08:02:36;103969.63;;;-2.64;94.67
75221;BME280;63802;53.232;6.570;2023-02-08T08:05:02;103978.75;;;-2.52;94.52
75221;BME280;63802;53.232;6.570;2023-02-08T08:07:27;103970.09;;;-2.54;94.93
75221;BME280;63802;53.232;6.570;2023-02-08T08:09:53;103974.25;;;-2.45;94.77
75221;BME280;63802;53.232;6.570;2023-02-08T08:12:19;103967.25;;;-2.46;94.50
75221;BME280;63802;53.232;6.570;2023-02-08T08:14:45;103976.75;;;-2.37;94.52
75221;BME280;63802;53.232;6.570;2023-02-08T08:17:11;103977.59;;;-2.30;94.55
75221;BME280;63802;53.232;6.570;2023-02-08T08:19:36;103978.88;;;-2.26;94.58
75221;BME280;63802;53.232;6.570;2023-02-08T08:22:01;103972.72;;;-2.20;94.52
75221;BME280;63802;53.232;6.570;2023-02-08T08:24:27;103969.66;;;-2.17;94.53
75221;BME280;63802;53.232;6.570;2023-02-08T08:26:56;103966.97;;;-2.17;94.59
75221;BME280;63802;53.232;6.570;2023-02-08T08:29:21;103968.22;;;-2.13;94.43
75221;BME280;63802;53.232;6.570;2023-02-08T08:31:46;103966.81;;;-2.09;94.19
75221;BME280;63802;53.232;6.570;2023-02-08T08:34:12;103964.78;;;-2.00;93.73
75221;BME280;63802;53.232;6.570;2023-02-08T08:36:37;103962.53;;;-1.97;94.02
75221;BME280;63802;53.232;6.570;2023-02-08T08:39:03;103944.81;;;-1.91;93.91
75221;BME280;63802;53.232;6.570;2023-02-08T08:41:28;103964.66;;;-1.73;93.19
75221;BME280;63802;53.232;6.570;2023-02-08T08:43:54;103953.50;;;-1.70;93.43
75221;BME280;63802;53.232;6.570;2023-02-08T08:46:19;103947.75;;;-1.60;93.14
75221;BME280;63802;53.232;6.570;2023-02-08T08:48:45;103942.84;;;-1.57;93.17
75221;BME280;63802;53.232;6.570;2023-02-08T08:51:11;103939.16;;;-1.49;92.79
75221;BME280;63802;53.232;6.570;2023-02-08T08:53:36;103956.44;;;-1.39;92.73
75221;BME280;63802;53.232;6.570;2023-02-08T08:56:03;103959.31;;;-1.33;92.39
75221;BME280;63802;53.232;6.570;2023-02-08T08:58:29;103956.63;;;-1.27;92.33
75221;BME280;63802;53.232;6.570;2023-02-08T09:00:58;103960.97;;;-1.19;92.16
75221;BME280;63802;53.232;6.570;2023-02-08T09:03:24;103971.28;;;-1.03;91.88
75221;BME280;63802;53.232;6.570;2023-02-08T09:05:50;103963.84;;;-0.95;91.50
75221;BME280;63802;53.232;6.570;2023-02-08T09:08:16;103970.81;;;-0.74;91.55
75221;BME280;63802;53.232;6.570;2023-02-08T09:10:42;103968.69;;;-0.46;91.24
75221;BME280;63802;53.232;6.570;2023-02-08T09:13:08;103965.31;;;-0.22;91.19
75221;BME280;63802;53.232;6.570;2023-02-08T09:15:36;103972.59;;;0.03;90.77
75221;BME280;63802;53.232;6.570;2023-02-08T09:18:02;103966.53;;;0.20;90.18
75221;BME280;63802;53.232;6.570;2023-02-08T09:20:28;103971.97;;;0.45;89.49
75221;BME280;63802;53.232;6.570;2023-02-08T09:22:53;103971.75;;;0.71;88.86
75221;BME280;63802;53.232;6.570;2023-02-08T09:25:19;103969.88;;;0.96;88.24
75221;BME280;63802;53.232;6.570;2023-02-08T09:27:45;103987.84;;;1.20;87.14
75221;BME280;63802;53.232;6.570;2023-02-08T09:30:10;103994.19;;;1.51;86.25
75221;BME280;63802;53.232;6.570;2023-02-08T09:32:36;104001.38;;;1.75;85.59
75221;BME280;63802;53.232;6.570;2023-02-08T09:35:04;103985.97;;;1.82;84.06
75221;BME280;63802;53.232;6.570;2023-02-08T09:37:30;103996.69;;;2.00;82.90
75221;BME280;63802;53.232;6.570;2023-02-08T09:39:55;103986.78;;;2.12;81.71
75221;BME280;63802;53.232;6.570;2023-02-08T09:42:37;103989.47;;;2.30;79.55
75221;BME280;63802;53.232;6.570;2023-02-08T09:45:30;103993.28;;;2.64;78.92
75221;BME280;63802;53.232;6.570;2023-02-08T09:48:19;103998.59;;;2.82;76.93
75221;BME280;63802;53.232;6.570;2023-02-08T09:50:52;103993.06;;;2.65;74.04
75221;BME280;63802;53.232;6.570;2023-02-08T09:53:29;104000.59;;;2.87;72.33
75221;BME280;63802;53.232;6.570;2023-02-08T09:55:58;103997.13;;;3.09;71.75
75221;BME280;63802;53.232;6.570;2023-02-08T10:00:58;103997.69;;;3.23;69.66
75221;BME280;63802;53.232;6.570;2023-02-08T10:03:42;103997.34;;;3.08;67.87
75221;BME280;63802;53.232;6.570;2023-02-08T10:06:12;103990.78;;;3.27;68.60
75221;BME280;63802;53.232;6.570;2023-02-08T10:08:40;103987.94;;;3.22;67.28
75221;BME280;63802;53.232;6.570;2023-02-08T10:14:04;104000.13;;;3.59;67.37
75221;BME280;63802;53.232;6.570;2023-02-08T10:22:00;103994.97;;;3.69;64.34
75221;BME280;63802;53.232;6.570;2023-02-08T10:27:17;103984.84;;;3.76;62.95
75221;BME280;63802;53.232;6.570;2023-02-08T10:30:09;103984.38;;;4.07;63.70
75221;BME280;63802;53.232;6.570;2023-02-08T10:35:13;103980.13;;;4.40;62.78
75221;BME280;63802;53.232;6.570;2023-02-08T10:37:41;103979.59;;;4.26;60.91
75221;BME280;63802;53.232;6.570;2023-02-08T10:42:47;103983.09;;;4.88;60.29
75221;BME280;63802;53.232;6.570;2023-02-08T10:45:25;103973.50;;;4.97;59.19
75221;BME280;63802;53.232;6.570;2023-02-08T10:48:00;103973.34;;;4.87;57.82
75221;BME280;63802;53.232;6.570;2023-02-08T10:50:39;103969.56;;;5.43;58.11
75221;BME280;63802;53.232;6.570;2023-02-08T10:53:05;103969.41;;;5.93;57.68
75221;BME280;63802;53.232;6.570;2023-02-08T10:55:32;103951.03;;;5.95;57.07
75221;BME280;63802;53.232;6.570;2023-02-08T10:58:01;103949.22;;;5.84;55.46
75221;BME280;63802;53.232;6.570;2023-02-08T11:00:31;103954.50;;;6.17;55.27
75221;BME280;63802;53.232;6.570;2023-02-08T11:02:59;103953.59;;;6.06;54.21
75221;BME280;63802;53.232;6.570;2023-02-08T11:05:35;103951.22;;;6.15;54.65
75221;BME280;63802;53.232;6.570;2023-02-08T11:10:38;103914.63;;;5.91;52.81
75221;BME280;63802;53.232;6.570;2023-02-08T11:13:17;103919.00;;;5.49;53.47
75221;BME280;63802;53.232;6.570;2023-02-08T11:15:55;103913.19;;;5.62;54.11
75221;BME280;63802;53.232;6.570;2023-02-08T11:18:30;103906.59;;;5.53;54.56
75221;BME280;63802;53.232;6.570;2023-02-08T11:21:02;103909.06;;;5.32;54.23
75221;BME280;63802;53.232;6.570;2023-02-08T11:23:30;103908.94;;;5.66;54.81
75221;BME280;63802;53.232;6.570;2023-02-08T11:26:34;103908.72;;;5.94;53.88
75221;BME280;63802;53.232;6.570;2023-02-08T11:32:00;103896.97;;;6.42;52.35
75221;BME280;63802;53.232;6.570;2023-02-08T11:36:58;103888.34;;;6.92;50.18
75221;BME280;63802;53.232;6.570;2023-02-08T11:39:30;103889.84;;;7.14;50.12
75221;BME280;63802;53.232;6.570;2023-02-08T11:42:00;103887.06;;;6.99;48.74
75221;BME280;63802;53.232;6.570;2023-02-08T11:44:31;103892.06;;;6.75;48.09
75221;BME280;63802;53.232;6.570;2023-02-08T11:47:00;103900.00;;;6.50;47.20
75221;BME280;63802;53.232;6.570;2023-02-08T11:49:34;103873.03;;;6.02;47.36
75221;BME280;63802;53.232;6.570;2023-02-08T11:52:01;103888.34;;;6.18;48.19
75221;BME280;63802;53.232;6.570;2023-02-08T11:54:45;103883.38;;;6.73;47.09
75221;BME280;63802;53.232;6.570;2023-02-08T11:57:15;103881.00;;;6.45;46.48
75221;BME280;63802;53.232;6.570;2023-02-08T11:59:41;103876.69;;;6.49;46.69
75221;BME280;63802;53.232;6.570;2023-02-08T12:02:26;103878.94;;;6.62;45.74
75221;BME280;63802;53.232;6.570;2023-02-08T12:04:52;103854.66;;;6.46;44.17
75221;BME280;63802;53.232;6.570;2023-02-08T12:13:05;103866.97;;;6.58;46.73
75221;BME280;63802;53.232;6.570;2023-02-08T12:15:40;103867.72;;;6.86;44.58
75221;BME280;63802;53.232;6.570;2023-02-08T12:18:20;103864.09;;;6.75;45.02
75221;BME280;63802;53.232;6.570;2023-02-08T12:20:52;103867.16;;;6.89;44.15
75221;BME280;63802;53.232;6.570;2023-02-08T12:23:46;103856.34;;;6.94;44.75
75221;BME280;63802;53.232;6.570;2023-02-08T12:40:44;103844.13;;;6.49;40.80
75221;BME280;63802;53.232;6.570;2023-02-08T12:43:49;103826.75;;;6.45;39.53
75221;BME280;63802;53.232;6.570;2023-02-08T12:49:41;103832.75;;;6.52;39.11
75221;BME280;63802;53.232;6.570;2023-02-08T12:57:47;103804.13;;;6.71;38.65
75221;BME280;63802;53.232;6.570;2023-02-08T13:00:21;103803.72;;;6.53;38.64
75221;BME280;63802;53.232;6.570;2023-02-08T13:05:32;103795.31;;;6.54;38.31
75221;BME280;63802;53.232;6.570;2023-02-08T13:11:03;103798.91;;;6.65;38.85
75221;BME280;63802;53.232;6.570;2023-02-08T13:13:34;103787.03;;;6.76;38.92
75221;BME280;63802;53.232;6.570;2023-02-08T13:16:09;103806.41;;;6.95;38.54
75221;BME280;63802;53.232;6.570;2023-02-08T13:18:46;103785.50;;;6.95;40.02
75221;BME280;63802;53.232;6.570;2023-02-08T13:21:27;103786.75;;;6.78;39.07
75221;BME280;63802;53.232;6.570;2023-02-08T13:23:56;103774.22;;;6.66;38.28
75221;BME280;63802;53.232;6.570;2023-02-08T13:26:28;103783.50;;;6.75;37.91
75221;BME280;63802;53.232;6.570;2023-02-08T13:28:58;103782.41;;;6.71;39.14
75221;BME280;63802;53.232;6.570;2023-02-08T13:31:38;103769.44;;;6.84;37.82
75221;BME280;63802;53.232;6.570;2023-02-08T13:34:30;103752.63;;;6.92;38.38
75221;BME280;63802;53.232;6.570;2023-02-08T13:37:03;103747.75;;;6.94;38.50
75221;BME280;63802;53.232;6.570;2023-02-08T13:39:38;103747.91;;;6.72;38.62
75221;BME280;63802;53.232;6.570;2023-02-08T13:42:07;103738.31;;;7.11;39.41
75221;BME280;63802;53.232;6.570;2023-02-08T13:44:50;103727.16;;;7.03;39.48
75221;BME280;63802;53.232;6.570;2023-02-08T13:47:26;103724.06;;;6.74;38.08
75221;BME280;63802;53.232;6.570;2023-02-08T13:50:00;103713.22;;;6.74;39.13
75221;BME280;63802;53.232;6.570;2023-02-08T13:58:27;103699.19;;;6.35;38.95
75221;BME280;63802;53.232;6.570;2023-02-08T14:03:22;103694.25;;;6.27;38.98
75221;BME280;63802;53.232;6.570;2023-02-08T14:05:57;103689.25;;;6.04;38.48
75221;BME280;63802;53.232;6.570;2023-02-08T14:08:27;103690.31;;;6.03;40.03
75221;BME280;63802;53.232;6.570;2023-02-08T14:16:42;103677.63;;;5.77;41.62
75221;BME280;63802;53.232;6.570;2023-02-08T14:21:48;103677.03;;;5.70;40.71
75221;BME280;63802;53.232;6.570;2023-02-08T14:24:28;103676.75;;;5.66;41.20
75221;BME280;63802;53.232;6.570;2023-02-08T14:29:32;103668.88;;;5.65;40.76
75221;BME280;63802;53.232;6.570;2023-02-08T14:31:59;103660.19;;;5.63;41.59
75221;BME280;63802;53.232;6.570;2023-02-08T14:34:30;103655.03;;;5.61;41.11
75221;BME280;63802;53.232;6.570;2023-02-08T14:39:45;103653.66;;;5.59;40.74
75221;BME280;63802;53.232;6.570;2023-02-08T14:42:53;103643.84;;;5.53;40.15
75221;BME280;63802;53.232;6.570;2023-02-08T14:45:34;103642.25;;;5.52;42.00
75221;BME280;63802;53.232;6.570;2023-02-08T14:48:36;103645.19;;;5.50;43.46
75221;BME280;63802;53.232;6.570;2023-02-08T14:53:42;103643.84;;;5.53;42.05
75221;BME280;63802;53.232;6.570;2023-02-08T14:58:36;103640.81;;;5.44;42.73